Time;durP1;ratioP1;P1;durP2;ratioP2;P2;SDS_P1;SDS_P2;PMS_P1;PMS_P2;Temp;Humidity;BMP_temperature;BMP_pressure;BME280_temperature;BME280_humidity;BME280_pressure;Samples;Min_cycle;Max_cycle;Signal;HPM_P1;HPM_P2
2024/03/12 00:00:32;;;;;;;46.85;31.23;;;256.40;2252.80;;;;;;4995735;28;20113;-74
2024/03/12 00:02:58;;;;;;;59.50;38.72;;;256.50;2252.80;;;;;;5003334;28;20101;-73
2024/03/12 00:05:24;;;;;;;36.67;26.13;;;256.50;2252.80;;;;;;5001252;28;20026;-73
2024/03/12 00:07:53;;;;;;;36.60;23.00;;;256.50;2252.80;;;;;;5000605;28;20128;-73
2024/03/12 00:10:19;;;;;;;30.08;19.95;;;256.50;2252.80;;;;;;5002978;28;20054;-73
2024/03/12 00:12:50;;;;;;;29.50;16.67;;;256.50;2252.80;;;;;;4999681;28;20064;-73
2024/03/12 00:15:22;;;;;;;28.70;15.95;;;256.40;2252.80;;;;;;5002049;28;20420;-73
2024/03/12 00:17:49;;;;;;;27.13;16.77;;;256.30;2252.80;;;;;;4997384;28;20384;-73
2024/03/12 00:20:35;;;;;;;35.60;19.35;;;256.20;2252.80;;;;;;4999286;28;20052;-73
2024/03/12 00:23:01;;;;;;;34.03;18.50;;;256.10;2252.80;;;;;;5000435;28;20027;-74
2024/03/12 00:25:28;;;;;;;29.73;16.20;;;256.10;2252.80;;;;;;4995779;28;20105;-72
2024/03/12 00:27:57;;;;;;;21.73;12.50;;;256.00;2252.80;;;;;;4999837;28;20054;-72
2024/03/12 00:30:27;;;;;;;22.30;13.68;;;231.30;2252.80;;;;;;4997783;28;20038;-72
2024/03/12 00:32:54;;;;;;;17.40;10.65;;;231.20;2252.80;;;;;;4993891;28;20034;-71
2024/03/12 00:35:24;;;;;;;13.23;8.82;;;231.30;2252.80;;;;;;4994451;28;20025;-75
2024/03/12 00:37:51;;;;;;;19.90;10.55;;;231.30;2252.80;;;;;;4999326;28;20096;-73
2024/03/12 00:40:20;;;;;;;11.73;6.82;;;231.30;2252.80;;;;;;5005839;28;20017;-74
2024/03/12 00:42:47;;;;;;;13.45;8.75;;;256.00;2252.80;;;;;;4999467;28;20022;-73
2024/03/12 00:45:14;;;;;;;14.75;8.32;;;256.10;2252.80;;;;;;4990997;28;20022;-74
2024/03/12 00:47:41;;;;;;;19.60;9.20;;;256.10;2252.80;;;;;;4993512;28;20029;-74
2024/03/12 00:50:09;;;;;;;16.13;9.93;;;256.20;2252.80;;;;;;4999040;28;20109;-73
2024/03/12 00:52:38;;;;;;;18.50;9.23;;;256.20;2252.80;;;;;;4996903;28;20102;-73
2024/03/12 00:55:04;;;;;;;14.23;7.82;;;256.20;2252.80;;;;;;5002071;28;20550;-72
2024/03/12 00:57:34;;;;;;;12.60;7.28;;;256.20;2252.80;;;;;;4998219;28;20054;-75
2024/03/12 01:00:03;;;;;;;12.23;7.50;;;256.20;2252.80;;;;;;4996472;28;20377;-74
2024/03/12 01:02:32;;;;;;;13.18;7.50;;;256.20;2252.80;;;;;;4998884;28;20030;-73
2024/03/12 01:04:59;;;;;;;14.18;7.55;;;256.20;2252.80;;;;;;4996796;28;20524;-74
2024/03/12 01:07:25;;;;;;;11.38;7.25;;;256.20;2252.80;;;;;;5000028;28;20029;-73
2024/03/12 01:09:52;;;;;;;9.57;4.72;;;256.30;2252.80;;;;;;4995199;28;20494;-74
2024/03/12 01:12:18;;;;;;;6.78;3.92;;;256.40;2252.80;;;;;;5000479;28;20037;-74
2024/03/12 01:14:44;;;;;;;10.48;5.38;;;256.20;2252.80;;;;;;4999921;28;20022;-74
2024/03/12 01:17:10;;;;;;;9.38;5.07;;;231.20;2252.80;;;;;;4997965;28;20033;-74
2024/03/12 01:19:36;;;;;;;6.50;3.63;;;231.20;2252.80;;;;;;4993720;28;20117;-74
2024/03/12 01:22:08;;;;;;;6.78;4.00;;;231.10;2252.80;;;;;;4998396;28;20033;-75
2024/03/12 01:24:34;;;;;;;22.55;11.50;;;231.20;2252.80;;;;;;4993666;28;20015;-74
2024/03/12 01:27:03;;;;;;;15.10;9.77;;;231.30;2252.80;;;;;;4994098;28;20101;-74
2024/03/12 01:29:31;;;;;;;19.35;11.90;;;256.00;2252.80;;;;;;4997414;28;20383;-73
2024/03/12 01:31:57;;;;;;;17.23;9.48;;;256.00;2252.80;;;;;;4979253;28;20112;-74
2024/03/12 01:34:22;;;;;;;16.95;10.25;;;256.10;2252.80;;;;;;4993799;28;20033;-74
2024/03/12 01:36:49;;;;;;;12.43;7.82;;;256.20;2252.80;;;;;;4996677;28;20041;-75
2024/03/12 01:39:25;;;;;;;11.35;7.07;;;256.20;2252.80;;;;;;4999963;28;20400;-73
2024/03/12 01:41:53;;;;;;;8.02;4.65;;;256.10;2252.80;;;;;;5001157;28;20387;-74
2024/03/12 01:44:20;;;;;;;8.27;4.80;;;231.30;2252.80;;;;;;4993318;28;20023;-73
2024/03/12 01:46:46;;;;;;;9.18;5.57;;;256.20;2252.80;;;;;;4999635;28;20026;-74
2024/03/12 01:49:13;;;;;;;11.85;8.23;;;256.20;2252.80;;;;;;4999396;28;20690;-74
2024/03/12 01:51:39;;;;;;;13.75;8.82;;;256.20;2252.80;;;;;;4997658;28;20038;-73
2024/03/12 01:54:05;;;;;;;11.13;7.93;;;256.20;2252.80;;;;;;5003484;28;20018;-74
2024/03/12 01:56:32;;;;;;;10.75;7.88;;;256.20;2252.80;;;;;;4999304;28;20055;-74
2024/03/12 01:58:58;;;;;;;7.22;5.20;;;256.20;2252.80;;;;;;5001521;28;20023;-75
2024/03/12 02:01:27;;;;;;;9.45;4.65;;;256.30;2252.80;;;;;;4998498;28;20027;-73
2024/03/12 02:03:54;;;;;;;8.13;6.53;;;256.30;2252.80;;;;;;4995422;28;20030;-75
2024/03/12 02:06:23;;;;;;;13.77;9.30;;;256.30;2252.80;;;;;;5003878;28;20495;-74
2024/03/12 02:08:50;;;;;;;13.73;9.15;;;256.30;2252.80;;;;;;4994865;28;20065;-73
2024/03/12 02:11:16;;;;;;;15.57;10.23;;;256.40;2252.80;;;;;;5000408;28;20550;-75
2024/03/12 02:13:42;;;;;;;16.17;8.93;;;256.40;2252.80;;;;;;5001173;28;20023;-74
2024/03/12 02:16:10;;;;;;;15.95;9.18;;;256.40;2252.80;;;;;;5004022;28;20427;-75
2024/03/12 02:18:36;;;;;;;7.43;5.10;;;256.40;2252.80;;;;;;5002178;28;20065;-75
2024/03/12 02:21:03;;;;;;;8.63;4.75;;;256.20;2252.80;;;;;;5017608;28;20472;-75
2024/03/12 02:23:43;;;;;;;8.43;5.18;;;256.30;2252.80;;;;;;5012063;28;20500;-75
2024/03/12 02:26:09;;;;;;;7.82;4.65;;;256.20;2252.80;;;;;;5000004;28;20025;-74
2024/03/12 02:28:39;;;;;;;10.68;5.55;;;256.20;2252.80;;;;;;5007486;28;20129;-74
2024/03/12 02:31:06;;;;;;;8.85;5.40;;;256.30;2252.80;;;;;;5019244;28;20056;-73
2024/03/12 02:33:33;;;;;;;7.75;4.57;;;256.30;2252.80;;;;;;5012414;28;20046;-73
2024/03/12 02:35:59;;;;;;;7.40;5.43;;;256.30;2252.80;;;;;;5015775;28;20044;-74
2024/03/12 02:38:26;;;;;;;38.58;22.27;;;256.40;2252.80;;;;;;5007343;28;20033;-73
2024/03/12 02:40:52;;;;;;;15.23;8.45;;;256.50;2252.80;;;;;;5007919;28;20038;-75
2024/03/12 02:43:18;;;;;;;8.27;5.50;;;256.60;2252.80;;;;;;5012398;28;20049;-73
2024/03/12 02:45:45;;;;;;;13.05;6.93;;;256.60;2252.80;;;;;;5011280;28;20026;-72
2024/03/12 02:48:12;;;;;;;7.07;4.68;;;256.60;2252.80;;;;;;5011242;28;20022;-73
2024/03/12 02:50:38;;;;;;;6.38;3.30;;;256.60;2252.80;;;;;;5011296;28;20026;-73
2024/03/12 02:53:06;;;;;;;17.98;8.70;;;256.60;2252.80;;;;;;5011250;28;20037;-72
2024/03/12 02:55:31;;;;;;;27.90;11.55;;;256.70;2252.80;;;;;;5009960;28;20636;-75
2024/03/12 02:57:58;;;;;;;21.33;10.65;;;256.80;2252.80;;;;;;5011519;28;20508;-73
2024/03/12 03:00:23;;;;;;;14.07;7.43;;;256.80;2252.80;;;;;;5010949;28;20033;-74
2024/03/12 03:02:49;;;;;;;14.20;7.22;;;256.80;2252.80;;;;;;5010829;28;20014;-73
2024/03/12 03:05:15;;;;;;;11.95;6.53;;;256.60;2252.80;;;;;;5010732;28;20380;-73
2024/03/12 03:07:41;;;;;;;9.80;5.85;;;256.60;2252.80;;;;;;5010861;28;20026;-75
2024/03/12 03:10:08;;;;;;;11.82;6.32;;;256.60;2252.80;;;;;;5011108;28;20080;-73
2024/03/12 03:12:35;;;;;;;9.32;5.90;;;231.30;2252.80;;;;;;5010793;28;20049;-74
2024/03/12 03:15:01;;;;;;;8.80;5.53;;;231.10;2252.80;;;;;;5010928;28;20018;-73
2024/03/12 03:17:27;;;;;;;7.40;4.30;;;231.20;2252.80;;;;;;5010781;28;20362;-74
2024/03/12 03:19:53;;;;;;;7.88;3.50;;;231.30;2252.80;;;;;;5010834;28;20025;-74
2024/03/12 03:22:19;;;;;;;8.32;5.07;;;256.20;2252.80;;;;;;5010762;28;20026;-74
2024/03/12 03:24:44;;;;;;;6.35;3.28;;;256.20;2252.80;;;;;;5010557;28;20030;-73
2024/03/12 03:27:10;;;;;;;5.82;2.95;;;256.40;2252.80;;;;;;5010459;28;20122;-74
2024/03/12 03:29:37;;;;;;;5.68;4.45;;;256.40;2252.80;;;;;;5010908;28;20061;-73
2024/03/12 03:32:06;;;;;;;5.93;2.53;;;256.60;2252.80;;;;;;5010005;28;20029;-74
2024/03/12 03:34:32;;;;;;;4.25;2.13;;;256.60;2252.80;;;;;;5010521;28;20563;-77
2024/03/12 03:37:01;;;;;;;3.85;2.00;;;256.70;2252.80;;;;;;5010728;28;20097;-74
2024/03/12 03:39:30;;;;;;;4.35;1.33;;;256.90;2252.80;;;;;;5010627;28;20033;-74
2024/03/12 03:41:56;;;;;;;3.50;1.63;;;281.60;2278.40;;;;;;5010147;28;20021;-74
2024/03/12 03:44:22;;;;;;;2.95;1.48;;;282.10;2278.40;;;;;;5010111;28;20097;-73
2024/03/12 03:46:49;;;;;;;4.32;2.30;;;281.90;2278.40;;;;;;5010277;28;20109;-73
2024/03/12 03:49:15;;;;;;;2.45;1.33;;;281.90;2278.40;;;;;;5010096;28;20022;-74
2024/03/12 03:51:41;;;;;;;4.53;1.63;;;282.00;2278.40;;;;;;5010344;28;20164;-73
2024/03/12 03:54:09;;;;;;;3.00;1.92;;;282.10;2278.40;;;;;;5010285;28;20029;-73
2024/03/12 03:56:35;;;;;;;5.28;2.30;;;282.20;2278.40;;;;;;5009973;28;20030;-74
2024/03/12 03:59:01;;;;;;;4.85;2.10;;;282.30;2278.40;;;;;;5009890;28;20029;-75
2024/03/12 04:01:30;;;;;;;6.35;1.60;;;282.30;2278.40;;;;;;5009895;28;20034;-74
2024/03/12 04:03:57;;;;;;;17.52;15.85;;;282.40;2278.40;;;;;;5010008;28;20026;-72
2024/03/12 04:06:23;;;;;;;3.63;2.38;;;282.50;2278.40;;;;;;5009377;28;20442;-74
2024/03/12 04:08:50;;;;;;;22.08;11.43;;;282.50;2278.40;;;;;;4992501;28;20054;-75
2024/03/12 04:11:20;;;;;;;12.70;6.38;;;282.50;2278.40;;;;;;5009584;28;20480;-74
2024/03/12 04:13:54;;;;;;;14.00;7.93;;;282.10;2278.40;;;;;;5009708;28;20030;-74
2024/03/12 04:16:20;;;;;;;13.52;8.88;;;281.80;2278.40;;;;;;5009760;28;20029;-74
2024/03/12 04:18:46;;;;;;;15.93;9.98;;;281.60;2278.40;;;;;;5009679;28;20064;-72
2024/03/12 04:21:13;;;;;;;26.95;13.07;;;256.80;2252.80;;;;;;5009667;28;20034;-75
2024/03/12 04:23:39;;;;;;;19.60;12.73;;;256.90;2252.80;;;;;;5009491;28;20056;-75
2024/03/12 04:26:05;;;;;;;21.00;13.07;;;256.80;2252.80;;;;;;5009343;28;20519;-73
2024/03/12 04:28:31;;;;;;;27.05;15.52;;;256.80;2252.80;;;;;;5009100;28;20052;-76
2024/03/12 04:30:57;;;;;;;26.23;15.32;;;256.80;2252.80;;;;;;5009175;28;20064;-76
2024/03/12 04:33:24;;;;;;;29.13;16.92;;;256.70;2252.80;;;;;;5009349;28;20156;-75
2024/03/12 04:35:52;;;;;;;24.33;13.38;;;256.80;2252.80;;;;;;5009353;28;20022;-76
2024/03/12 04:38:20;;;;;;;28.85;17.25;;;256.70;2252.80;;;;;;4991462;28;20037;-76
2024/03/12 04:40:50;;;;;;;21.40;11.07;;;256.60;2252.80;;;;;;5009045;28;20072;-75
2024/03/12 04:43:18;;;;;;;23.25;13.05;;;256.50;2252.80;;;;;;5009659;28;20172;-76
2024/03/12 04:45:43;;;;;;;11.02;6.80;;;256.50;2252.80;;;;;;5009043;28;20026;-75
2024/03/12 04:48:11;;;;;;;17.67;12.52;;;256.60;2252.80;;;;;;5009269;28;20026;-74
2024/03/12 04:50:37;;;;;;;76.03;33.58;;;256.90;2252.80;;;;;;5009258;28;20759;-74
2024/03/12 04:53:04;;;;;;;80.43;43.10;;;256.90;2252.80;;;;;;5009025;28;20372;-74
2024/03/12 04:55:39;;;;;;;22.25;12.30;;;281.60;2278.40;;;;;;4991589;28;20034;-74
2024/03/12 04:58:05;;;;;;;31.85;13.80;;;281.60;2278.40;;;;;;5008822;28;20538;-74
2024/03/12 05:00:31;;;;;;;16.60;10.45;;;281.60;2278.40;;;;;;5008904;28;20029;-75
2024/03/12 05:02:57;;;;;;;23.27;13.90;;;281.70;2278.40;;;;;;5009290;28;20056;-73
2024/03/12 05:05:23;;;;;;;27.75;15.40;;;281.70;2278.40;;;;;;5008635;28;20105;-74
2024/03/12 05:07:50;;;;;;;21.77;14.27;;;281.60;2278.40;;;;;;5009361;28;20392;-73
2024/03/12 05:10:17;;;;;;;27.35;15.10;;;281.70;2278.40;;;;;;5008805;28;20021;-73
2024/03/12 05:12:45;;;;;;;24.48;15.18;;;281.70;2278.40;;;;;;4996159;28;20049;-75
2024/03/12 05:15:11;;;;;;;23.63;14.38;;;281.70;2278.40;;;;;;5008898;28;20018;-74
2024/03/12 05:17:39;;;;;;;20.02;13.93;;;281.80;2278.40;;;;;;5008564;28;20114;-74
2024/03/12 05:20:06;;;;;;;20.70;15.13;;;281.90;2278.40;;;;;;5008423;28;20137;-74
2024/03/12 05:22:35;;;;;;;20.23;15.00;;;281.90;2278.40;;;;;;5008841;28;20100;-75
2024/03/12 05:25:01;;;;;;;29.98;15.93;;;282.00;2278.40;;;;;;5008744;28;20299;-74
2024/03/12 05:27:37;;;;;;;28.23;18.60;;;282.10;2278.40;;;;;;5008870;28;20072;-75
2024/03/12 05:30:14;;;;;;;20.27;14.52;;;282.10;2278.40;;;;;;5008618;28;20026;-73
2024/03/12 05:32:45;;;;;;;18.42;11.95;;;282.20;2278.40;;;;;;5008827;28;20040;-74
2024/03/12 05:35:18;;;;;;;14.43;9.00;;;282.30;2278.40;;;;;;5008643;28;20014;-73
2024/03/12 05:38:03;;;;;;;12.85;8.25;;;282.50;2278.40;;;;;;5008582;28;20025;-74
2024/03/12 05:48:43;;;;;;;12.80;7.78;;;307.90;2304.00;;;;;;5008304;28;20041;-75
2024/03/12 05:51:09;;;;;;;14.90;9.32;;;332.80;2329.60;;;;;;5008592;28;20097;-74
2024/03/12 05:53:37;;;;;;;34.85;22.40;;;333.00;2329.60;;;;;;5007894;28;20022;-74
2024/03/12 05:56:05;;;;;;;24.38;15.43;;;333.10;2329.60;;;;;;4990753;28;20025;-76
2024/03/12 05:58:31;;;;;;;29.90;21.17;;;333.20;2329.60;;;;;;5008241;28;20101;-74
2024/03/12 06:00:58;;;;;;;27.38;16.63;;;333.30;2329.60;;;;;;5023937;28;20117;-74
2024/03/12 06:03:23;;;;;;;33.60;22.50;;;333.40;2329.60;;;;;;5003748;28;20037;-74
2024/03/12 06:05:49;;;;;;;23.20;13.38;;;333.50;2329.60;;;;;;5007858;28;20018;-74
2024/03/12 06:08:15;;;;;;;11.05;8.10;;;333.50;2329.60;;;;;;5008252;28;20022;-74
2024/03/12 06:10:41;;;;;;;9.55;7.45;;;333.50;2329.60;;;;;;5007968;28;20140;-76
2024/03/12 06:13:07;;;;;;;10.40;5.88;;;333.50;2329.60;;;;;;5008591;28;20030;-77
2024/03/12 06:15:33;;;;;;;10.07;7.15;;;333.40;2329.60;;;;;;5007949;28;20022;-74
2024/03/12 06:18:02;;;;;;;12.80;8.70;;;333.50;2329.60;;;;;;5008548;28;20034;-78
2024/03/12 06:20:28;;;;;;;16.92;10.25;;;333.40;2329.60;;;;;;5008295;28;20052;-76
2024/03/12 06:22:54;;;;;;;13.80;9.48;;;333.30;2329.60;;;;;;5006564;28;20014;-74
2024/03/12 06:25:21;;;;;;;15.63;10.85;;;333.30;2329.60;;;;;;5017436;28;20030;-74
2024/03/12 06:27:48;;;;;;;14.30;8.88;;;333.30;2329.60;;;;;;5008302;28;20081;-74
2024/03/12 06:30:15;;;;;;;12.27;8.73;;;333.30;2329.60;;;;;;5009957;28;20436;-74
2024/03/12 06:32:41;;;;;;;18.33;9.93;;;333.30;2329.60;;;;;;5011878;28;20397;-74
2024/03/12 06:35:08;;;;;;;14.48;9.50;;;333.70;2329.60;;;;;;5011473;28;20060;-73
2024/03/12 06:37:34;;;;;;;13.30;9.38;;;358.80;2329.60;;;;;;5011831;28;20430;-74
2024/03/12 06:40:03;;;;;;;13.82;10.13;;;384.10;2329.60;;;;;;4998448;28;20157;-74
2024/03/12 06:42:31;;;;;;;13.02;9.52;;;410.00;2355.20;;;;;;5011571;28;20026;-73
2024/03/12 06:45:00;;;;;;;14.63;10.30;;;435.90;2252.80;;;;;;5011576;28;20033;-74
2024/03/12 06:47:26;;;;;;;14.35;9.73;;;486.90;2099.20;;;;;;5011180;28;20057;-74
2024/03/12 06:49:52;;;;;;;13.60;10.02;;;538.10;1920.00;;;;;;5011348;28;20652;-74
2024/03/12 06:52:18;;;;;;;11.70;8.50;;;589.20;1792.00;;;;;;5011632;28;20060;-74
2024/03/12 06:54:44;;;;;;;15.07;8.35;;;614.80;1664.00;;;;;;5010949;28;20021;-76
2024/03/12 06:57:11;;;;;;;12.65;8.02;;;640.70;1587.20;;;;;;5011501;28;20026;-75
2024/03/12 06:59:37;;;;;;;12.93;11.63;;;691.50;1459.20;;;;;;5011223;28;20017;-74
2024/03/12 07:02:06;;;;;;;8.77;5.57;;;716.80;1459.20;;;;;;5010949;28;20380;-74
2024/03/12 07:04:35;;;;;;;6.78;4.00;;;717.20;1408.00;;;;;;5010517;28;20036;-74
2024/03/12 07:07:07;;;;;;;6.28;4.07;;;717.00;1382.40;;;;;;5011200;28;20547;-75
2024/03/12 07:09:37;;;;;;;5.15;3.80;;;716.80;1382.40;;;;;;5010862;28;20467;-76
2024/03/12 07:12:08;;;;;;;4.18;3.42;;;666.30;1408.00;;;;;;5010843;28;20064;-74
2024/03/12 07:14:45;;;;;;;4.55;3.35;;;640.70;1459.20;;;;;;5010844;28;20098;-75
2024/03/12 07:17:12;;;;;;;4.05;2.75;;;614.90;1484.80;;;;;;5010977;28;20044;-76
2024/03/12 07:19:39;;;;;;;4.97;2.95;;;640.20;1484.80;;;;;;5010641;28;20520;-74
2024/03/12 07:22:08;;;;;;;3.65;2.63;;;615.00;1484.80;;;;;;5010853;28;20026;-78
2024/03/12 07:24:37;;;;;;;11.13;10.20;;;588.80;1587.20;;;;;;5010546;28;20423;-74
2024/03/12 07:27:07;;;;;;;5.55;3.38;;;563.40;1638.40;;;;;;5010108;28;20052;-76
2024/03/12 07:29:33;;;;;;;6.72;5.88;;;538.00;1664.00;;;;;;4997753;28;20114;-77
2024/03/12 07:32:03;;;;;;;6.32;3.83;;;512.50;1689.60;;;;;;5012592;28;20129;-74
2024/03/12 07:34:32;;;;;;;7.95;4.82;;;512.10;1740.80;;;;;;5010684;28;20030;-75
2024/03/12 07:36:59;;;;;;;7.57;4.85;;;487.00;1766.40;;;;;;5010542;28;20049;-75
2024/03/12 07:39:31;;;;;;;8.18;4.40;;;486.80;1792.00;;;;;;5010285;28;20034;-75
2024/03/12 07:42:00;;;;;;;6.93;4.40;;;486.80;1792.00;;;;;;5009528;28;20083;-76
2024/03/12 07:44:26;;;;;;;4.68;3.33;;;486.70;1792.00;;;;;;5010379;28;20103;-74
2024/03/12 07:46:54;;;;;;;7.97;4.07;;;486.50;1843.20;;;;;;5010222;28;20022;-75
2024/03/12 07:49:23;;;;;;;5.80;2.90;;;486.50;1817.60;;;;;;5010484;28;20037;-75
2024/03/12 07:51:49;;;;;;;6.07;3.10;;;461.70;1843.20;;;;;;5010400;28;20041;-75
2024/03/12 07:54:19;;;;;;;8.10;3.38;;;461.40;1894.40;;;;;;5010182;28;20086;-75
2024/03/12 07:56:48;;;;;;;4.80;3.10;;;461.20;1894.40;;;;;;5000070;28;20556;-74
2024/03/12 07:59:21;;;;;;;8.93;3.72;;;461.10;1945.60;;;;;;5011073;28;20125;-74
2024/03/12 08:01:49;;;;;;;7.13;3.85;;;460.90;1945.60;;;;;;5009478;28;20105;-69
2024/03/12 08:04:19;;;;;;;5.22;3.05;;;460.90;1945.60;;;;;;5009265;28;20428;-76
2024/03/12 08:06:45;;;;;;;5.38;2.78;;;436.10;1945.60;;;;;;5010030;28;20034;-73
2024/03/12 08:09:12;;;;;;;6.03;2.85;;;436.10;1945.60;;;;;;4997556;28;20457;-70
2024/03/12 08:11:38;;;;;;;4.60;2.20;;;460.80;1971.20;;;;;;5009780;28;20053;-77
2024/03/12 08:14:04;;;;;;;6.90;2.70;;;460.80;1945.60;;;;;;5010019;28;20025;-70
2024/03/12 08:16:33;;;;;;;5.90;1.90;;;460.80;1945.60;;;;;;5005036;28;20026;-71
2024/03/12 08:18:59;;;;;;;3.47;2.03;;;436.10;1894.40;;;;;;5012511;28;20029;-71
2024/03/12 08:21:27;;;;;;;4.20;2.50;;;436.10;1920.00;;;;;;5011837;28;20117;-72
2024/03/12 08:23:56;;;;;;;5.97;2.97;;;436.00;1920.00;;;;;;5011476;28;20030;-69
2024/03/12 08:26:22;;;;;;;3.17;2.30;;;436.00;1945.60;;;;;;5011705;28;20791;-73
2024/03/12 08:28:48;;;;;;;2.55;1.55;;;435.90;1920.00;;;;;;5015931;28;20123;-72
2024/03/12 08:31:15;;;;;;;4.75;2.63;;;435.90;1945.60;;;;;;5025274;28;20080;-74
2024/03/12 08:33:41;;;;;;;3.80;1.98;;;435.80;1945.60;;;;;;4997615;28;20152;-73
2024/03/12 08:36:07;;;;;;;3.95;1.95;;;435.90;1920.00;;;;;;5009297;28;20362;-76
2024/03/12 08:38:34;;;;;;;3.85;2.80;;;435.90;1945.60;;;;;;5009505;28;20049;-78
2024/03/12 08:41:00;;;;;;;4.05;1.90;;;460.80;1945.60;;;;;;5009442;28;20033;-75
2024/03/12 08:43:26;;;;;;;4.30;2.60;;;486.90;1843.20;;;;;;5009730;28;20026;-73
2024/03/12 08:45:52;;;;;;;5.18;2.78;;;487.00;1817.60;;;;;;5009233;28;20364;-70
2024/03/12 08:48:18;;;;;;;3.72;2.35;;;461.60;1894.40;;;;;;5009426;28;20057;-71
2024/03/12 08:50:44;;;;;;;4.45;2.60;;;461.20;1920.00;;;;;;5008934;28;20030;-76
2024/03/12 08:53:11;;;;;;;4.43;2.55;;;461.20;1945.60;;;;;;5009235;28;20026;-74
2024/03/12 08:55:38;;;;;;;12.80;5.93;;;461.10;1945.60;;;;;;5009410;28;20026;-73
2024/03/12 08:58:04;;;;;;;9.88;4.40;;;460.80;1945.60;;;;;;5009221;28;20057;-72
2024/03/12 09:00:32;;;;;;;7.15;3.13;;;436.10;1945.60;;;;;;5009170;28;20057;-72
2024/03/12 09:02:59;;;;;;;5.82;2.88;;;435.90;1971.20;;;;;;5009363;28;20084;-74
2024/03/12 09:05:25;;;;;;;6.35;3.55;;;435.70;1996.80;;;;;;5009032;28;20018;-72
2024/03/12 09:07:51;;;;;;;5.05;3.13;;;435.60;1996.80;;;;;;5009145;28;20029;-70
2024/03/12 09:10:17;;;;;;;4.70;2.88;;;435.60;1996.80;;;;;;5008723;28;20049;-74
2024/03/12 09:12:43;;;;;;;7.15;3.50;;;435.60;2022.40;;;;;;5009049;28;20475;-71
2024/03/12 09:15:09;;;;;;;4.22;2.67;;;435.80;2022.40;;;;;;5009174;28;20105;-71
2024/03/12 09:17:38;;;;;;;6.07;2.78;;;436.10;2022.40;;;;;;5009225;28;20049;-71
2024/03/12 09:20:10;;;;;;;5.45;3.28;;;436.10;1971.20;;;;;;5008490;28;20022;-72
2024/03/12 09:22:37;;;;;;;6.80;3.35;;;460.80;2022.40;;;;;;5009089;28;20610;-74
2024/03/12 09:25:05;;;;;;;6.78;4.35;;;461.00;1996.80;;;;;;5008578;28;20018;-70
2024/03/12 09:27:34;;;;;;;4.75;3.33;;;460.80;1996.80;;;;;;5009179;28;20080;-72
2024/03/12 09:30:00;;;;;;;5.47;3.17;;;436.10;2022.40;;;;;;4991328;28;20041;-72
2024/03/12 09:32:26;;;;;;;5.22;2.63;;;435.90;2048.00;;;;;;5009074;28;20041;-75
2024/03/12 09:34:52;;;;;;;77.65;43.55;;;436.00;2022.40;;;;;;5008739;28;20022;-71
2024/03/12 09:37:19;;;;;;;18.45;10.55;;;435.90;1996.80;;;;;;5008990;28;20491;-75
2024/03/12 09:39:45;;;;;;;40.15;21.85;;;436.10;2022.40;;;;;;5008035;28;20037;-70
2024/03/12 09:42:14;;;;;;;70.05;39.45;;;460.80;2022.40;;;;;;5008940;28;20026;-74
2024/03/12 09:44:41;;;;;;;39.75;21.98;;;460.80;2048.00;;;;;;5008408;28;20033;-70
2024/03/12 09:47:09;;;;;;;95.38;50.95;;;460.90;2022.40;;;;;;5008954;28;20026;-69
2024/03/12 09:49:35;;;;;;;32.95;18.67;;;461.00;2022.40;;;;;;5008120;28;20464;-70
2024/03/12 09:52:05;;;;;;;55.70;27.70;;;461.10;1996.80;;;;;;5008493;28;20531;-71
2024/03/12 09:54:31;;;;;;;30.30;18.80;;;461.10;2022.40;;;;;;5008672;28;20022;-71
2024/03/12 09:56:59;;;;;;;15.77;10.38;;;460.80;2022.40;;;;;;5008533;28;20104;-74
2024/03/12 09:59:25;;;;;;;47.90;26.55;;;435.90;2022.40;;;;;;5008763;28;20480;-72
2024/03/12 10:01:52;;;;;;;10.75;7.40;;;435.90;2022.40;;;;;;5008398;28;20137;-70
2024/03/12 10:04:17;;;;;;;14.70;11.38;;;435.90;2073.60;;;;;;5009194;28;20036;-71
2024/03/12 10:06:44;;;;;;;22.23;15.85;;;435.80;2099.20;;;;;;5011929;28;20105;-73
2024/03/12 10:09:17;;;;;;;10.82;5.82;;;436.00;2099.20;;;;;;5012342;28;20022;-74
2024/03/12 10:11:46;;;;;;;11.93;7.93;;;435.90;2073.60;;;;;;5011949;28;20034;-72
2024/03/12 10:14:17;;;;;;;9.90;6.70;;;435.90;2073.60;;;;;;5012393;28;20028;-71
2024/03/12 10:16:43;;;;;;;8.60;5.85;;;435.70;2073.60;;;;;;4994479;28;20029;-73
2024/03/12 10:19:18;;;;;;;6.97;5.35;;;435.70;2099.20;;;;;;5012032;28;20025;-74
2024/03/12 10:21:49;;;;;;;10.40;7.60;;;435.70;2099.20;;;;;;5011704;28;20025;-71
2024/03/12 10:24:22;;;;;;;27.92;20.13;;;435.70;2099.20;;;;;;5011956;28;20385;-70
2024/03/12 10:26:49;;;;;;;15.63;10.80;;;435.70;2099.20;;;;;;5011509;28;20108;-77
2024/03/12 10:29:20;;;;;;;16.08;12.15;;;435.50;2073.60;;;;;;5011737;28;20030;-77
2024/03/12 10:31:47;;;;;;;7.95;3.65;;;435.60;2073.60;;;;;;5013414;28;20556;-72
2024/03/12 10:34:19;;;;;;;8.00;4.75;;;435.50;2048.00;;;;;;5015940;28;20034;-78
2024/03/12 10:36:49;;;;;;;6.70;4.88;;;435.50;2073.60;;;;;;5015972;28;20033;-74
2024/03/12 10:39:28;;;;;;;5.53;3.58;;;435.60;2073.60;;;;;;5015807;28;20072;-75
2024/03/12 10:41:59;;;;;;;10.98;8.20;;;460.80;2073.60;;;;;;5015451;28;20026;-72
2024/03/12 10:44:27;;;;;;;7.35;5.25;;;460.90;2022.40;;;;;;5015403;28;20033;-70
2024/03/12 10:46:53;;;;;;;7.40;4.93;;;460.90;2022.40;;;;;;5015896;28;20072;-72
2024/03/12 10:49:22;;;;;;;7.35;5.35;;;460.80;2022.40;;;;;;5013590;28;20085;-73
2024/03/12 10:51:48;;;;;;;8.27;5.72;;;436.10;1996.80;;;;;;4993298;28;20668;-76
2024/03/12 10:54:16;;;;;;;5.43;3.95;;;460.90;2048.00;;;;;;5011387;28;20100;-74
2024/03/12 10:56:45;;;;;;;11.82;8.88;;;461.00;2073.60;;;;;;5011402;28;20022;-72
2024/03/12 10:59:12;;;;;;;10.45;4.72;;;461.00;2022.40;;;;;;5011643;28;20022;-73
2024/03/12 11:01:41;;;;;;;7.90;4.05;;;461.10;2022.40;;;;;;5011093;28;20029;-72
2024/03/12 11:04:11;;;;;;;5.40;3.42;;;461.10;2022.40;;;;;;5011208;28;20069;-70
2024/03/12 11:06:38;;;;;;;7.32;4.93;;;461.30;1971.20;;;;;;5011327;28;20426;-76
2024/03/12 11:09:07;;;;;;;8.70;6.25;;;461.20;1971.20;;;;;;5010951;28;20026;-75
2024/03/12 11:11:34;;;;;;;6.03;4.10;;;461.20;2022.40;;;;;;5011052;28;20066;-73
2024/03/12 11:14:05;;;;;;;5.78;3.78;;;461.10;2099.20;;;;;;5011167;28;20077;-72
2024/03/12 11:16:35;;;;;;;7.40;4.20;;;461.00;2073.60;;;;;;5010110;28;20357;-71
2024/03/12 11:19:22;;;;;;;6.90;3.50;;;460.80;2124.80;;;;;;5011115;28;20420;-70
2024/03/12 11:21:49;;;;;;;66.43;47.15;;;435.70;2150.40;;;;;;5010909;28;20022;-68
2024/03/12 11:24:47;;;;;;;17.67;12.70;;;435.50;2201.60;;;;;;5011153;28;20434;-68
2024/03/12 11:27:21;;;;;;;9.20;4.90;;;410.50;2304.00;;;;;;5010680;28;20058;-68
2024/03/12 11:30:03;;;;;;;110.45;100.00;;;;;;;;;;5010306;28;20092;-68
2024/03/12 11:32:50;;;;;;;156.65;111.38;;;435.20;2355.20;;;;;;5011049;28;20128;-67
2024/03/12 11:35:22;;;;;;;25.33;18.67;;;435.20;2355.20;;;;;;5010447;28;20464;-77
2024/03/12 11:38:00;;;;;;;20.27;12.38;;;;;;;;;;5011056;28;20115;-77
2024/03/12 11:40:26;;;;;;;26.55;16.83;;;;;;;;;;5010489;28;20030;-75
2024/03/12 11:42:56;;;;;;;26.48;17.83;;;;;;;;;;5010280;28;20026;-73
2024/03/12 11:45:35;;;;;;;15.13;10.60;;;;;;;;;;5010861;28;20080;-73
2024/03/12 11:48:01;;;;;;;16.10;11.05;;;;;;;;;;5010305;28;20024;-75
2024/03/12 11:50:34;;;;;;;20.10;14.23;;;;;;;;;;5010546;28;20431;-69
2024/03/12 11:53:00;;;;;;;;;;;;;;;;;;5010824;28;20064;-69
2024/03/12 11:55:45;;;;;;;11.48;7.03;;;;;;;;;;5010442;28;19905;-69
2024/03/12 11:58:12;;;;;;;10.95;8.00;;;;;;;;;;5010365;28;20091;-69
2024/03/12 12:00:38;;;;;;;9.60;6.95;;;;;;;;;;5010254;28;20034;-69
2024/03/12 12:03:04;;;;;;;11.50;7.93;;;461.40;2304.00;;;;;;5009958;28;20026;-70
2024/03/12 12:05:31;;;;;;;12.75;9.45;;;461.40;2355.20;;;;;;5010206;28;20029;-69
2024/03/12 12:08:06;;;;;;;11.63;7.13;;;461.40;2252.80;;;;;;5010185;28;20415;-69
2024/03/12 12:10:33;;;;;;;14.52;7.88;;;461.20;2252.80;;;;;;5010162;28;20018;-69
2024/03/12 12:12:59;;;;;;;18.77;15.52;;;461.40;2252.80;;;;;;5010330;28;20419;-69
2024/03/12 12:15:29;;;;;;;17.88;13.00;;;461.50;2278.40;;;;;;5009871;28;20026;-69
2024/03/12 12:18:10;;;;;;;15.55;12.07;;;461.50;2304.00;;;;;;5009814;28;20034;-68
2024/03/12 12:20:37;;;;;;;14.75;9.32;;;461.60;2252.80;;;;;;5009980;28;20026;-76
2024/03/12 12:23:03;;;;;;;12.50;8.43;;;461.70;2278.40;;;;;;5009818;28;20076;-73
2024/03/12 12:25:29;;;;;;;9.40;7.25;;;461.40;2252.80;;;;;;5009924;28;20383;-78